AAY351 KFLL-KBNA
Flight info
| Callsign | AAY351 |
|---|---|
| Flight time | 2h 5m |
| Altitude | 36000 |
| Route | HROCK2 KPASA Q118 THRSR SWFFT3 |
| Aircraft | A320/M-SDE3FGHIRWY/LB1 |
Departure
| Time | 2026-05-04 02:48 |
|---|---|
| Airport | Fort Lauderdale Hollywood International Airport (KFLL) |
Arrival
| Time | 2026-05-04 04:54 |
|---|---|
| Airport | Nashville International Airport (KBNA) |
| Time | Latitude | Longitude | Altitude | Speed | Heading |
|---|---|---|---|---|---|
| 2026-05-04 02:04 | 26.07410 | -80.14085 | 16 ft | 0 kts | 180° |
| 2026-05-04 02:30 | 26.07424 | -80.14085 | 17 ft | 4 kts | 180° |
| 2026-05-04 02:31 | 26.07449 | -80.14085 | 17 ft | 2 kts | 180° |
| 2026-05-04 02:31 | 26.07472 | -80.14082 | 18 ft | 4 kts | 212° |
| 2026-05-04 02:31 | 26.07485 | -80.14061 | 16 ft | 3 kts | 270° |
| 2026-05-04 02:31 | 26.07485 | -80.14036 | 16 ft | 1 kts | 270° |
| 2026-05-04 02:37 | 26.07485 | -80.14062 | 16 ft | 6 kts | 270° |
| 2026-05-04 02:38 | 26.07485 | -80.14073 | 16 ft | 0 kts | 270° |
| 2026-05-04 02:38 | 26.07485 | -80.14079 | 16 ft | 3 kts | 270° |
| 2026-05-04 02:38 | 26.07486 | -80.14101 | 16 ft | 2 kts | 270° |
| 2026-05-04 02:38 | 26.07485 | -80.14115 | 16 ft | 3 kts | 269° |
| 2026-05-04 02:39 | 26.07485 | -80.14163 | 16 ft | 10 kts | 270° |
| 2026-05-04 02:39 | 26.07486 | -80.14252 | 16 ft | 11 kts | 270° |
| 2026-05-04 02:39 | 26.07487 | -80.14331 | 16 ft | 9 kts | 270° |
| 2026-05-04 02:39 | 26.07487 | -80.14398 | 16 ft | 8 kts | 270° |
| 2026-05-04 02:40 | 26.07487 | -80.14489 | 16 ft | 14 kts | 270° |
| 2026-05-04 02:40 | 26.07488 | -80.14578 | 16 ft | 10 kts | 270° |
| 2026-05-04 02:40 | 26.07488 | -80.14652 | 16 ft | 9 kts | 270° |
| 2026-05-04 02:40 | 26.07489 | -80.14718 | 16 ft | 11 kts | 270° |
| 2026-05-04 02:41 | 26.07487 | -80.14824 | 16 ft | 13 kts | 268° |
| 2026-05-04 02:41 | 26.07487 | -80.14920 | 16 ft | 12 kts | 271° |
| 2026-05-04 02:41 | 26.07488 | -80.15025 | 16 ft | 16 kts | 270° |
| 2026-05-04 02:41 | 26.07489 | -80.15146 | 16 ft | 15 kts | 271° |
| 2026-05-04 02:42 | 26.07490 | -80.15250 | 16 ft | 12 kts | 270° |
| 2026-05-04 02:42 | 26.07490 | -80.15345 | 15 ft | 12 kts | 270° |
| 2026-05-04 02:42 | 26.07491 | -80.15432 | 15 ft | 10 kts | 270° |
| 2026-05-04 02:42 | 26.07491 | -80.15508 | 16 ft | 10 kts | 270° |
| 2026-05-04 02:43 | 26.07492 | -80.15588 | 16 ft | 12 kts | 270° |
| 2026-05-04 02:43 | 26.07492 | -80.15697 | 16 ft | 13 kts | 270° |
| 2026-05-04 02:43 | 26.07493 | -80.15794 | 16 ft | 12 kts | 270° |
| 2026-05-04 02:43 | 26.07493 | -80.15904 | 16 ft | 15 kts | 270° |
| 2026-05-04 02:44 | 26.07494 | -80.16015 | 16 ft | 13 kts | 270° |
| 2026-05-04 02:44 | 26.07495 | -80.16112 | 16 ft | 12 kts | 270° |
| 2026-05-04 02:44 | 26.07495 | -80.16200 | 16 ft | 11 kts | 270° |
| 2026-05-04 02:44 | 26.07496 | -80.16292 | 16 ft | 12 kts | 270° |
| 2026-05-04 02:45 | 26.07496 | -80.16416 | 16 ft | 18 kts | 270° |
| 2026-05-04 02:45 | 26.07498 | -80.16554 | 16 ft | 18 kts | 266° |
| 2026-05-04 02:45 | 26.07542 | -80.16640 | 16 ft | 13 kts | 354° |
| 2026-05-04 02:45 | 26.07590 | -80.16643 | 17 ft | 0 kts | 0° |
| 2026-05-04 02:46 | 26.07621 | -80.16643 | 17 ft | 8 kts | 0° |
| 2026-05-04 02:46 | 26.07668 | -80.16637 | 18 ft | 8 kts | 21° |
| 2026-05-04 02:47 | 26.07696 | -80.16564 | 18 ft | 8 kts | 91° |
| 2026-05-04 02:47 | 26.07696 | -80.16554 | 18 ft | 0 kts | 90° |
| 2026-05-04 02:47 | 26.07695 | -80.16488 | 19 ft | 33 kts | 90° |
| 2026-05-04 02:48 | 26.07694 | -80.15946 | 19 ft | 104 kts | 90° |
| 2026-05-04 02:48 | 26.07688 | -80.14937 | 20 ft | 158 kts | 91° |
| 2026-05-04 02:48 | 26.07676 | -80.13651 | 488 ft | 165 kts | 86° |
| 2026-05-04 02:48 | 26.07714 | -80.12366 | 1135 ft | 169 kts | 87° |
| 2026-05-04 02:49 | 26.07754 | -80.11056 | 1779 ft | 172 kts | 88° |
| 2026-05-04 02:49 | 26.07913 | -80.09669 | 2056 ft | 193 kts | 72° |
| 2026-05-04 02:49 | 26.08559 | -80.08271 | 2277 ft | 217 kts | 50° |
| 2026-05-04 02:49 | 26.09724 | -80.07082 | 2586 ft | 240 kts | 33° |
| 2026-05-04 02:50 | 26.11284 | -80.06217 | 2973 ft | 261 kts | 17° |
| 2026-05-04 02:50 | 26.13041 | -80.05553 | 3634 ft | 271 kts | 18° |
| 2026-05-04 02:50 | 26.14889 | -80.05068 | 3927 ft | 273 kts | 3° |
| 2026-05-04 02:50 | 26.16767 | -80.05159 | 4012 ft | 270 kts | 347° |
| 2026-05-04 02:51 | 26.18551 | -80.05774 | 4052 ft | 267 kts | 338° |
| 2026-05-04 02:51 | 26.20292 | -80.06507 | 4302 ft | 268 kts | 332° |
| 2026-05-04 02:51 | 26.21826 | -80.07658 | 4547 ft | 266 kts | 315° |
| 2026-05-04 02:51 | 26.22995 | -80.09242 | 4795 ft | 264 kts | 298° |
| 2026-05-04 02:52 | 26.23749 | -80.11101 | 4961 ft | 264 kts | 290° |
| 2026-05-04 02:52 | 26.24426 | -80.13019 | 5428 ft | 266 kts | 290° |
| 2026-05-04 02:52 | 26.25108 | -80.14936 | 6330 ft | 267 kts | 290° |
| 2026-05-04 02:52 | 26.25716 | -80.16897 | 7140 ft | 268 kts | 284° |
| 2026-05-04 02:53 | 26.26244 | -80.18895 | 7933 ft | 270 kts | 284° |
| 2026-05-04 02:53 | 26.26781 | -80.20910 | 8740 ft | 272 kts | 284° |
| 2026-05-04 02:53 | 26.27322 | -80.22938 | 9531 ft | 274 kts | 284° |
| 2026-05-04 02:53 | 26.27869 | -80.24987 | 10253 ft | 279 kts | 284° |
| 2026-05-04 02:54 | 26.28443 | -80.27151 | 10460 ft | 303 kts | 284° |
| 2026-05-04 02:54 | 26.29056 | -80.29462 | 10806 ft | 317 kts | 284° |
| 2026-05-04 02:54 | 26.29691 | -80.31842 | 11427 ft | 323 kts | 284° |
| 2026-05-04 02:54 | 26.30332 | -80.34249 | 12122 ft | 325 kts | 284° |
| 2026-05-04 02:55 | 26.31629 | -80.39121 | 13535 ft | 330 kts | 284° |
| 2026-05-04 02:55 | 26.32283 | -80.41582 | 14192 ft | 332 kts | 284° |
| 2026-05-04 02:55 | 26.32939 | -80.44058 | 14809 ft | 334 kts | 283° |
| 2026-05-04 02:56 | 26.33597 | -80.46544 | 15441 ft | 335 kts | 283° |
| 2026-05-04 02:56 | 26.34256 | -80.49039 | 16060 ft | 337 kts | 283° |
| 2026-05-04 02:56 | 26.34917 | -80.51547 | 16671 ft | 338 kts | 282° |
| 2026-05-04 02:56 | 26.35580 | -80.54069 | 17285 ft | 340 kts | 282° |
| 2026-05-04 02:57 | 26.36246 | -80.56607 | 17890 ft | 341 kts | 282° |
| 2026-05-04 02:57 | 26.36914 | -80.59152 | 18466 ft | 343 kts | 282° |
| 2026-05-04 02:57 | 26.37583 | -80.61703 | 18967 ft | 344 kts | 282° |
| 2026-05-04 02:57 | 26.38250 | -80.64244 | 19471 ft | 346 kts | 281° |
| 2026-05-04 02:58 | 26.38939 | -80.66861 | 19998 ft | 348 kts | 281° |
| 2026-05-04 02:58 | 26.39620 | -80.69424 | 20471 ft | 351 kts | 282° |
| 2026-05-04 02:58 | 26.40604 | -80.71940 | 20966 ft | 361 kts | 294° |
| 2026-05-04 02:58 | 26.42111 | -80.74227 | 21451 ft | 373 kts | 304° |
| 2026-05-04 02:59 | 26.43880 | -80.76360 | 21938 ft | 376 kts | 305° |
| 2026-05-04 02:59 | 26.45664 | -80.78507 | 22417 ft | 378 kts | 305° |
| 2026-05-04 02:59 | 26.47460 | -80.80669 | 22871 ft | 381 kts | 305° |
| 2026-05-04 02:59 | 26.49266 | -80.82851 | 23325 ft | 384 kts | 304° |
| 2026-05-04 03:00 | 26.51135 | -80.85006 | 23741 ft | 392 kts | 310° |
| 2026-05-04 03:00 | 26.53252 | -80.86960 | 24112 ft | 397 kts | 312° |
| 2026-05-04 03:00 | 26.55398 | -80.88905 | 24506 ft | 398 kts | 312° |
| 2026-05-04 03:00 | 26.57554 | -80.90855 | 24897 ft | 399 kts | 312° |
| 2026-05-04 03:01 | 26.59715 | -80.92808 | 25285 ft | 400 kts | 312° |
| 2026-05-04 03:01 | 26.61880 | -80.94772 | 25677 ft | 401 kts | 312° |
| 2026-05-04 03:01 | 26.64049 | -80.96747 | 26048 ft | 402 kts | 312° |
| 2026-05-04 03:01 | 26.66222 | -80.98726 | 26418 ft | 404 kts | 312° |
| 2026-05-04 03:02 | 26.68402 | -81.00711 | 26792 ft | 405 kts | 312° |
| 2026-05-04 03:02 | 26.70589 | -81.02702 | 27160 ft | 406 kts | 312° |
| 2026-05-04 03:02 | 26.72785 | -81.04699 | 27523 ft | 407 kts | 312° |
| 2026-05-04 03:02 | 26.74984 | -81.06702 | 27880 ft | 408 kts | 311° |
| 2026-05-04 03:03 | 26.77188 | -81.08715 | 28236 ft | 409 kts | 311° |
| 2026-05-04 03:03 | 26.79395 | -81.10730 | 28588 ft | 410 kts | 311° |
| 2026-05-04 03:03 | 26.81610 | -81.12752 | 28930 ft | 412 kts | 311° |
| 2026-05-04 03:03 | 26.83833 | -81.14781 | 29263 ft | 413 kts | 311° |
| 2026-05-04 03:04 | 26.86063 | -81.16815 | 29585 ft | 414 kts | 311° |
| 2026-05-04 03:04 | 26.88295 | -81.18853 | 29903 ft | 415 kts | 311° |
| 2026-05-04 03:04 | 26.90531 | -81.20897 | 30195 ft | 416 kts | 311° |
| 2026-05-04 03:04 | 26.92016 | -81.22260 | 30358 ft | 416 kts | 311° |
| 2026-05-04 03:05 | 26.94257 | -81.24321 | 30591 ft | 418 kts | 311° |
| 2026-05-04 03:05 | 26.96510 | -81.26393 | 30814 ft | 419 kts | 311° |
| 2026-05-04 03:05 | 26.98770 | -81.28467 | 31033 ft | 421 kts | 311° |
| 2026-05-04 03:05 | 27.01034 | -81.30542 | 31335 ft | 420 kts | 311° |
| 2026-05-04 03:06 | 27.03291 | -81.32609 | 31635 ft | 419 kts | 311° |
| 2026-05-04 03:06 | 27.05727 | -81.34487 | 31932 ft | 431 kts | 320° |
| 2026-05-04 03:06 | 27.08336 | -81.36148 | 32225 ft | 431 kts | 320° |
| 2026-05-04 03:06 | 27.10945 | -81.37800 | 32516 ft | 431 kts | 319° |
| 2026-05-04 03:07 | 27.13554 | -81.39454 | 32818 ft | 430 kts | 319° |
| 2026-05-04 03:07 | 27.16158 | -81.41105 | 33106 ft | 430 kts | 319° |
| 2026-05-04 03:07 | 27.18763 | -81.42756 | 33398 ft | 430 kts | 319° |
| 2026-05-04 03:07 | 27.21367 | -81.44412 | 33683 ft | 429 kts | 319° |
| 2026-05-04 03:08 | 27.23964 | -81.46064 | 33970 ft | 429 kts | 318° |
| 2026-05-04 03:08 | 27.26562 | -81.47716 | 34226 ft | 429 kts | 318° |
| 2026-05-04 03:08 | 27.29157 | -81.49369 | 34479 ft | 428 kts | 318° |
| 2026-05-04 03:08 | 27.31741 | -81.51016 | 34736 ft | 427 kts | 318° |
| 2026-05-04 03:09 | 27.34385 | -81.52584 | 34986 ft | 435 kts | 324° |
| 2026-05-04 03:09 | 27.37194 | -81.53880 | 35214 ft | 438 kts | 324° |
| 2026-05-04 03:09 | 27.40016 | -81.55161 | 35446 ft | 437 kts | 324° |
| 2026-05-04 03:09 | 27.42834 | -81.56436 | 35666 ft | 436 kts | 324° |
| 2026-05-04 03:10 | 27.45647 | -81.57709 | 35878 ft | 435 kts | 324° |
| 2026-05-04 03:10 | 27.48453 | -81.58982 | 36051 ft | 435 kts | 324° |
| 2026-05-04 03:10 | 27.51250 | -81.60253 | 36111 ft | 432 kts | 324° |
| 2026-05-04 03:11 | 27.56805 | -81.62785 | 36093 ft | 430 kts | 323° |
| 2026-05-04 03:11 | 27.62335 | -81.65321 | 36092 ft | 429 kts | 323° |
| 2026-05-04 03:12 | 27.67830 | -81.67844 | 36107 ft | 429 kts | 323° |
| 2026-05-04 03:12 | 27.73362 | -81.70376 | 36118 ft | 429 kts | 323° |
| 2026-05-04 03:13 | 27.78889 | -81.72909 | 36134 ft | 429 kts | 323° |
| 2026-05-04 03:13 | 27.84420 | -81.75446 | 36147 ft | 429 kts | 323° |
| 2026-05-04 03:14 | 27.89949 | -81.77983 | 36155 ft | 429 kts | 323° |
| 2026-05-04 03:14 | 27.95474 | -81.80527 | 36159 ft | 429 kts | 323° |
| 2026-05-04 03:15 | 28.00999 | -81.83078 | 36159 ft | 429 kts | 323° |
| 2026-05-04 03:15 | 28.06522 | -81.85626 | 36171 ft | 429 kts | 323° |
| 2026-05-04 03:16 | 28.12047 | -81.88177 | 36171 ft | 428 kts | 323° |
| 2026-05-04 03:16 | 28.17507 | -81.90804 | 36163 ft | 417 kts | 316° |
| 2026-05-04 03:16 | 28.19902 | -81.92527 | 36163 ft | 404 kts | 311° |
| 2026-05-04 03:17 | 28.22205 | -81.94351 | 36171 ft | 404 kts | 311° |
| 2026-05-04 03:17 | 28.26805 | -81.98002 | 36175 ft | 404 kts | 311° |
| 2026-05-04 03:18 | 28.31410 | -82.01653 | 36170 ft | 404 kts | 311° |
| 2026-05-04 03:18 | 28.36017 | -82.05300 | 36170 ft | 404 kts | 311° |
| 2026-05-04 03:19 | 28.40619 | -82.08951 | 36167 ft | 404 kts | 311° |
| 2026-05-04 03:19 | 28.45219 | -82.12609 | 36163 ft | 403 kts | 311° |
| 2026-05-04 03:20 | 28.49785 | -82.16240 | 36154 ft | 403 kts | 312° |
| 2026-05-04 03:20 | 28.54405 | -82.19912 | 36159 ft | 403 kts | 312° |
| 2026-05-04 03:21 | 28.58995 | -82.23568 | 36159 ft | 402 kts | 312° |
| 2026-05-04 03:21 | 28.63546 | -82.27197 | 36173 ft | 402 kts | 312° |
| 2026-05-04 03:22 | 28.68121 | -82.30854 | 36187 ft | 402 kts | 312° |
| 2026-05-04 03:22 | 28.72699 | -82.34515 | 36193 ft | 402 kts | 313° |
| 2026-05-04 03:23 | 28.77279 | -82.38175 | 36185 ft | 402 kts | 313° |
| 2026-05-04 03:23 | 28.81852 | -82.41841 | 36190 ft | 402 kts | 313° |
| 2026-05-04 03:24 | 28.86422 | -82.45507 | 36173 ft | 402 kts | 313° |
| 2026-05-04 03:24 | 28.90989 | -82.49173 | 36178 ft | 401 kts | 313° |
| 2026-05-04 03:25 | 28.95549 | -82.52847 | 36176 ft | 401 kts | 313° |
| 2026-05-04 03:25 | 29.00115 | -82.56518 | 36174 ft | 401 kts | 313° |
| 2026-05-04 03:26 | 29.04677 | -82.60185 | 36168 ft | 401 kts | 313° |
| 2026-05-04 03:26 | 29.09242 | -82.63862 | 36164 ft | 401 kts | 313° |
| 2026-05-04 03:27 | 29.13797 | -82.67547 | 36160 ft | 401 kts | 313° |
| 2026-05-04 03:27 | 29.18343 | -82.71232 | 36161 ft | 401 kts | 314° |
| 2026-05-04 03:28 | 29.22894 | -82.74919 | 36156 ft | 401 kts | 314° |
| 2026-05-04 03:28 | 29.27443 | -82.78600 | 36156 ft | 401 kts | 314° |
| 2026-05-04 03:29 | 29.32001 | -82.82289 | 36157 ft | 401 kts | 314° |
| 2026-05-04 03:29 | 29.36557 | -82.85980 | 36163 ft | 401 kts | 314° |
| 2026-05-04 03:30 | 29.41106 | -82.89687 | 36169 ft | 401 kts | 314° |
| 2026-05-04 03:30 | 29.45665 | -82.93402 | 36181 ft | 402 kts | 314° |
| 2026-05-04 03:31 | 29.50222 | -82.97110 | 36182 ft | 402 kts | 315° |
| 2026-05-04 03:31 | 29.52678 | -82.98747 | 36177 ft | 416 kts | 325° |
| 2026-05-04 03:31 | 29.55363 | -83.00040 | 36184 ft | 419 kts | 326° |
| 2026-05-04 03:32 | 29.60755 | -83.02599 | 36189 ft | 419 kts | 326° |
| 2026-05-04 03:32 | 29.66145 | -83.05166 | 36186 ft | 420 kts | 327° |
| 2026-05-04 03:33 | 29.71503 | -83.07729 | 36187 ft | 420 kts | 326° |
| 2026-05-04 03:33 | 29.76898 | -83.10306 | 36188 ft | 420 kts | 327° |
| 2026-05-04 03:34 | 29.82306 | -83.12883 | 36185 ft | 420 kts | 327° |
| 2026-05-04 03:34 | 29.87700 | -83.15472 | 36191 ft | 420 kts | 327° |
| 2026-05-04 03:35 | 29.93090 | -83.18064 | 36192 ft | 420 kts | 327° |
| 2026-05-04 03:35 | 29.98492 | -83.20648 | 36186 ft | 420 kts | 327° |
| 2026-05-04 03:36 | 30.03894 | -83.23238 | 36185 ft | 420 kts | 327° |
| 2026-05-04 03:36 | 30.09296 | -83.25841 | 36188 ft | 421 kts | 327° |
| 2026-05-04 03:37 | 30.14696 | -83.28441 | 36189 ft | 421 kts | 327° |
| 2026-05-04 03:37 | 30.20097 | -83.31048 | 36188 ft | 421 kts | 327° |
| 2026-05-04 03:38 | 30.25493 | -83.33650 | 36185 ft | 421 kts | 328° |
| 2026-05-04 03:38 | 30.30905 | -83.36262 | 36187 ft | 421 kts | 328° |
| 2026-05-04 03:39 | 30.36308 | -83.38872 | 36188 ft | 421 kts | 328° |
| 2026-05-04 03:39 | 30.41705 | -83.41481 | 36188 ft | 420 kts | 328° |
| 2026-05-04 03:40 | 30.47103 | -83.44102 | 36187 ft | 420 kts | 328° |
| 2026-05-04 03:40 | 30.52488 | -83.46717 | 36188 ft | 420 kts | 328° |
| 2026-05-04 03:41 | 30.57876 | -83.49339 | 36190 ft | 420 kts | 328° |
| 2026-05-04 03:41 | 30.63267 | -83.51956 | 36192 ft | 420 kts | 329° |
| 2026-05-04 03:42 | 30.68620 | -83.54558 | 36188 ft | 420 kts | 329° |
| 2026-05-04 03:42 | 30.74006 | -83.57187 | 36190 ft | 420 kts | 329° |
| 2026-05-04 03:43 | 30.79389 | -83.59817 | 36197 ft | 419 kts | 329° |
| 2026-05-04 03:43 | 30.84765 | -83.62443 | 36199 ft | 419 kts | 329° |
| 2026-05-04 03:44 | 30.90135 | -83.65068 | 36197 ft | 418 kts | 329° |
| 2026-05-04 03:44 | 30.95502 | -83.67696 | 36184 ft | 418 kts | 330° |
| 2026-05-04 03:45 | 31.00857 | -83.70323 | 36184 ft | 418 kts | 330° |
| 2026-05-04 03:45 | 31.06210 | -83.72960 | 36191 ft | 418 kts | 330° |
| 2026-05-04 03:46 | 31.11559 | -83.75593 | 36184 ft | 417 kts | 330° |
| 2026-05-04 03:46 | 31.16907 | -83.78224 | 36189 ft | 417 kts | 330° |
| 2026-05-04 03:47 | 31.22219 | -83.80842 | 36190 ft | 417 kts | 330° |
| 2026-05-04 03:47 | 31.27593 | -83.83496 | 36187 ft | 417 kts | 330° |
| 2026-05-04 03:48 | 31.32899 | -83.86114 | 36184 ft | 417 kts | 330° |
| 2026-05-04 03:48 | 31.38235 | -83.88756 | 36184 ft | 416 kts | 331° |
| 2026-05-04 03:49 | 31.43570 | -83.91397 | 36189 ft | 416 kts | 331° |
| 2026-05-04 03:49 | 31.48895 | -83.94033 | 36191 ft | 415 kts | 331° |
| 2026-05-04 03:50 | 31.54386 | -83.96211 | 36190 ft | 423 kts | 343° |
| 2026-05-04 03:50 | 31.60165 | -83.97485 | 36191 ft | 423 kts | 343° |
| 2026-05-04 03:51 | 31.65941 | -83.98758 | 36188 ft | 422 kts | 343° |
| 2026-05-04 03:51 | 31.71705 | -84.00042 | 36190 ft | 421 kts | 343° |
| 2026-05-04 03:52 | 31.77460 | -84.01326 | 36184 ft | 421 kts | 343° |
| 2026-05-04 03:52 | 31.83210 | -84.02602 | 36173 ft | 420 kts | 344° |
| 2026-05-04 03:53 | 31.88952 | -84.03875 | 36168 ft | 420 kts | 344° |
| 2026-05-04 03:53 | 31.93717 | -84.04942 | 36168 ft | 419 kts | 344° |
| 2026-05-04 03:54 | 32.00370 | -84.06436 | 36173 ft | 418 kts | 344° |
| 2026-05-04 03:54 | 32.05161 | -84.07513 | 36162 ft | 418 kts | 344° |
| 2026-05-04 03:55 | 32.10869 | -84.08789 | 36164 ft | 417 kts | 344° |
| 2026-05-04 03:55 | 32.16567 | -84.10067 | 36164 ft | 417 kts | 344° |
| 2026-05-04 03:56 | 32.22258 | -84.11346 | 36166 ft | 416 kts | 344° |
| 2026-05-04 03:56 | 32.27944 | -84.12621 | 36167 ft | 415 kts | 344° |
| 2026-05-04 03:57 | 32.33614 | -84.13902 | 36169 ft | 414 kts | 344° |
| 2026-05-04 03:57 | 32.39271 | -84.15176 | 36165 ft | 414 kts | 345° |
| 2026-05-04 03:58 | 32.47707 | -84.17088 | 36167 ft | 413 kts | 344° |
| 2026-05-04 03:58 | 32.53346 | -84.18363 | 36163 ft | 412 kts | 345° |
| 2026-05-04 03:59 | 32.58975 | -84.19651 | 36161 ft | 412 kts | 344° |
| 2026-05-04 03:59 | 32.64603 | -84.20932 | 36168 ft | 412 kts | 344° |
| 2026-05-04 04:00 | 32.70225 | -84.22212 | 36164 ft | 411 kts | 346° |
| 2026-05-04 04:00 | 32.75842 | -84.23498 | 36166 ft | 411 kts | 345° |
| 2026-05-04 04:01 | 32.81455 | -84.24769 | 36178 ft | 411 kts | 345° |
| 2026-05-04 04:01 | 32.87069 | -84.26042 | 36184 ft | 410 kts | 344° |
| 2026-05-04 04:02 | 32.92673 | -84.27321 | 36183 ft | 410 kts | 344° |
| 2026-05-04 04:02 | 32.98287 | -84.28596 | 36188 ft | 410 kts | 344° |
| 2026-05-04 04:03 | 33.03888 | -84.29872 | 36189 ft | 410 kts | 344° |
| 2026-05-04 04:03 | 33.09496 | -84.31157 | 36185 ft | 410 kts | 344° |
| 2026-05-04 04:04 | 33.15099 | -84.32453 | 36178 ft | 410 kts | 344° |
| 2026-05-04 04:04 | 33.20702 | -84.33743 | 36194 ft | 410 kts | 344° |
| 2026-05-04 04:05 | 33.26307 | -84.35027 | 36205 ft | 410 kts | 343° |
| 2026-05-04 04:05 | 33.31903 | -84.36318 | 36213 ft | 410 kts | 343° |
| 2026-05-04 04:06 | 33.37496 | -84.37614 | 36213 ft | 409 kts | 343° |
| 2026-05-04 04:06 | 33.43090 | -84.38910 | 36216 ft | 409 kts | 343° |
| 2026-05-04 04:07 | 33.48646 | -84.40193 | 36213 ft | 409 kts | 343° |
| 2026-05-04 04:07 | 33.54229 | -84.41485 | 36180 ft | 409 kts | 343° |
| 2026-05-04 04:08 | 33.59850 | -84.42788 | 36183 ft | 408 kts | 343° |
| 2026-05-04 04:08 | 33.65263 | -84.44579 | 36182 ft | 400 kts | 333° |
| 2026-05-04 04:09 | 33.70456 | -84.47009 | 36182 ft | 400 kts | 333° |
| 2026-05-04 04:09 | 33.75611 | -84.49426 | 36179 ft | 400 kts | 333° |
| 2026-05-04 04:10 | 33.80828 | -84.51868 | 36182 ft | 400 kts | 333° |
| 2026-05-04 04:10 | 33.85977 | -84.54283 | 36154 ft | 400 kts | 333° |
| 2026-05-04 04:11 | 33.91155 | -84.56708 | 36156 ft | 399 kts | 333° |
| 2026-05-04 04:11 | 33.96334 | -84.59138 | 36184 ft | 399 kts | 333° |
| 2026-05-04 04:12 | 34.01290 | -84.62017 | 36186 ft | 395 kts | 328° |
| 2026-05-04 04:12 | 34.06197 | -84.65002 | 36186 ft | 395 kts | 328° |
| 2026-05-04 04:13 | 34.11096 | -84.67982 | 36183 ft | 394 kts | 327° |
| 2026-05-04 04:13 | 34.15986 | -84.70970 | 36182 ft | 394 kts | 327° |
| 2026-05-04 04:14 | 34.20874 | -84.73961 | 36178 ft | 394 kts | 327° |
| 2026-05-04 04:14 | 34.25760 | -84.76957 | 36170 ft | 394 kts | 327° |
| 2026-05-04 04:15 | 34.30645 | -84.79951 | 36168 ft | 393 kts | 327° |
| 2026-05-04 04:15 | 34.35522 | -84.82941 | 36169 ft | 393 kts | 327° |
| 2026-05-04 04:16 | 34.40405 | -84.85936 | 36167 ft | 393 kts | 327° |
| 2026-05-04 04:16 | 34.45274 | -84.88932 | 36174 ft | 393 kts | 327° |
| 2026-05-04 04:17 | 34.50146 | -84.91934 | 36166 ft | 393 kts | 327° |
| 2026-05-04 04:17 | 34.55015 | -84.94939 | 36168 ft | 392 kts | 327° |
| 2026-05-04 04:18 | 34.59883 | -84.97946 | 36172 ft | 392 kts | 327° |
| 2026-05-04 04:18 | 34.64733 | -85.00961 | 36178 ft | 391 kts | 325° |
| 2026-05-04 04:19 | 34.69313 | -85.04442 | 36175 ft | 388 kts | 322° |
| 2026-05-04 04:19 | 34.73862 | -85.07963 | 36169 ft | 388 kts | 322° |
| 2026-05-04 04:20 | 34.78421 | -85.11483 | 36151 ft | 388 kts | 322° |
| 2026-05-04 04:20 | 34.82987 | -85.15011 | 36123 ft | 390 kts | 322° |
| 2026-05-04 04:21 | 34.87567 | -85.18566 | 36130 ft | 391 kts | 321° |
| 2026-05-04 04:21 | 34.92144 | -85.22134 | 36136 ft | 390 kts | 321° |
| 2026-05-04 04:22 | 34.96690 | -85.25669 | 36142 ft | 386 kts | 321° |
| 2026-05-04 04:22 | 34.98925 | -85.27405 | 35866 ft | 383 kts | 321° |
| 2026-05-04 04:22 | 35.01167 | -85.29147 | 35078 ft | 386 kts | 322° |
| 2026-05-04 04:23 | 35.03451 | -85.30936 | 34240 ft | 391 kts | 322° |
| 2026-05-04 04:23 | 35.05736 | -85.32728 | 33597 ft | 389 kts | 322° |
| 2026-05-04 04:23 | 35.08005 | -85.34503 | 32980 ft | 386 kts | 322° |
| 2026-05-04 04:23 | 35.10253 | -85.36260 | 32394 ft | 382 kts | 322° |
| 2026-05-04 04:24 | 35.12490 | -85.38007 | 31813 ft | 379 kts | 322° |
| 2026-05-04 04:24 | 35.14702 | -85.39733 | 31229 ft | 376 kts | 322° |
| 2026-05-04 04:24 | 35.16734 | -85.41691 | 30573 ft | 370 kts | 311° |
| 2026-05-04 04:24 | 35.18510 | -85.43948 | 30037 ft | 367 kts | 310° |
| 2026-05-04 04:25 | 35.20263 | -85.46192 | 29486 ft | 363 kts | 310° |
| 2026-05-04 04:25 | 35.22002 | -85.48415 | 28922 ft | 360 kts | 310° |
| 2026-05-04 04:25 | 35.23732 | -85.50619 | 28344 ft | 357 kts | 310° |
| 2026-05-04 04:25 | 35.25448 | -85.52805 | 27792 ft | 355 kts | 310° |
| 2026-05-04 04:26 | 35.27151 | -85.54973 | 27252 ft | 353 kts | 311° |
| 2026-05-04 04:26 | 35.28846 | -85.57135 | 26754 ft | 350 kts | 311° |
| 2026-05-04 04:26 | 35.30522 | -85.59278 | 26259 ft | 348 kts | 311° |
| 2026-05-04 04:26 | 35.32195 | -85.61414 | 25680 ft | 347 kts | 311° |
| 2026-05-04 04:27 | 35.33865 | -85.63552 | 24682 ft | 348 kts | 311° |
| 2026-05-04 04:27 | 35.35541 | -85.65700 | 23759 ft | 348 kts | 311° |
| 2026-05-04 04:27 | 35.37209 | -85.67838 | 22507 ft | 350 kts | 311° |
| 2026-05-04 04:27 | 35.38912 | -85.70022 | 21111 ft | 358 kts | 311° |
| 2026-05-04 04:28 | 35.40630 | -85.72224 | 20033 ft | 357 kts | 312° |
| 2026-05-04 04:28 | 35.42337 | -85.74413 | 19267 ft | 349 kts | 312° |
| 2026-05-04 04:28 | 35.43972 | -85.76508 | 18786 ft | 333 kts | 312° |
| 2026-05-04 04:28 | 35.45557 | -85.78539 | 18016 ft | 327 kts | 312° |
| 2026-05-04 04:29 | 35.47117 | -85.80542 | 17150 ft | 323 kts | 313° |
| 2026-05-04 04:29 | 35.48656 | -85.82522 | 16354 ft | 322 kts | 313° |
| 2026-05-04 04:29 | 35.50196 | -85.84510 | 15932 ft | 320 kts | 313° |
| 2026-05-04 04:29 | 35.51724 | -85.86487 | 15504 ft | 318 kts | 313° |
| 2026-05-04 04:30 | 35.53242 | -85.88451 | 15114 ft | 316 kts | 313° |
| 2026-05-04 04:30 | 35.54739 | -85.90386 | 15004 ft | 316 kts | 313° |
| 2026-05-04 04:30 | 35.56254 | -85.92352 | 15036 ft | 317 kts | 313° |
| 2026-05-04 04:30 | 35.57774 | -85.94363 | 15040 ft | 318 kts | 313° |
| 2026-05-04 04:31 | 35.59249 | -85.96337 | 15039 ft | 318 kts | 312° |
| 2026-05-04 04:31 | 35.60738 | -85.98341 | 15047 ft | 318 kts | 312° |
| 2026-05-04 04:31 | 35.62228 | -86.00348 | 15045 ft | 317 kts | 312° |
| 2026-05-04 04:31 | 35.63715 | -86.02353 | 15048 ft | 317 kts | 312° |
| 2026-05-04 04:32 | 35.65196 | -86.04362 | 15047 ft | 317 kts | 312° |
| 2026-05-04 04:32 | 35.66688 | -86.06368 | 14934 ft | 317 kts | 313° |
| 2026-05-04 04:32 | 35.68166 | -86.08339 | 14689 ft | 309 kts | 313° |
| 2026-05-04 04:32 | 35.69605 | -86.10264 | 14461 ft | 302 kts | 313° |
| 2026-05-04 04:33 | 35.71001 | -86.12159 | 14210 ft | 296 kts | 310° |
| 2026-05-04 04:33 | 35.72222 | -86.14165 | 13980 ft | 290 kts | 307° |
| 2026-05-04 04:33 | 35.73405 | -86.16145 | 13711 ft | 284 kts | 307° |
| 2026-05-04 04:33 | 35.74571 | -86.18085 | 13436 ft | 279 kts | 307° |
| 2026-05-04 04:34 | 35.75719 | -86.19992 | 13161 ft | 277 kts | 307° |
| 2026-05-04 04:34 | 35.76863 | -86.21893 | 12894 ft | 275 kts | 307° |
| 2026-05-04 04:34 | 35.78000 | -86.23782 | 12650 ft | 274 kts | 307° |
| 2026-05-04 04:34 | 35.79134 | -86.25667 | 12382 ft | 274 kts | 307° |
| 2026-05-04 04:35 | 35.80266 | -86.27550 | 12120 ft | 273 kts | 307° |
| 2026-05-04 04:35 | 35.81389 | -86.29423 | 11872 ft | 272 kts | 307° |
| 2026-05-04 04:35 | 35.82509 | -86.31298 | 11614 ft | 271 kts | 307° |
| 2026-05-04 04:35 | 35.83630 | -86.33171 | 11366 ft | 271 kts | 307° |
| 2026-05-04 04:36 | 35.84744 | -86.35035 | 11118 ft | 270 kts | 307° |
| 2026-05-04 04:36 | 35.85856 | -86.36898 | 10875 ft | 270 kts | 307° |
| 2026-05-04 04:36 | 35.86968 | -86.38756 | 10634 ft | 269 kts | 307° |
| 2026-05-04 04:36 | 35.88076 | -86.40609 | 10385 ft | 268 kts | 307° |
| 2026-05-04 04:37 | 35.91370 | -86.46142 | 9997 ft | 267 kts | 307° |
| 2026-05-04 04:37 | 35.92471 | -86.47990 | 10027 ft | 267 kts | 307° |
| 2026-05-04 04:38 | 35.93572 | -86.49839 | 10030 ft | 267 kts | 307° |
| 2026-05-04 04:38 | 35.94676 | -86.51689 | 9950 ft | 268 kts | 307° |
| 2026-05-04 04:38 | 35.95775 | -86.53534 | 9820 ft | 267 kts | 307° |
| 2026-05-04 04:38 | 35.96857 | -86.55356 | 9686 ft | 265 kts | 307° |
| 2026-05-04 04:39 | 35.97924 | -86.57156 | 9549 ft | 254 kts | 307° |
| 2026-05-04 04:39 | 35.99124 | -86.58720 | 9414 ft | 245 kts | 325° |
| 2026-05-04 04:39 | 36.00659 | -86.59534 | 9285 ft | 245 kts | 347° |
| 2026-05-04 04:39 | 36.02369 | -86.59516 | 9165 ft | 250 kts | 10° |
| 2026-05-04 04:40 | 36.03498 | -86.59094 | 9068 ft | 252 kts | 14° |
| 2026-05-04 04:40 | 36.05735 | -86.58192 | 8526 ft | 256 kts | 14° |
| 2026-05-04 04:40 | 36.07420 | -86.57513 | 8203 ft | 253 kts | 14° |
| 2026-05-04 04:40 | 36.09056 | -86.56851 | 8068 ft | 242 kts | 14° |
| 2026-05-04 04:41 | 36.10614 | -86.56222 | 8005 ft | 231 kts | 14° |
| 2026-05-04 04:41 | 36.11651 | -86.55824 | 8010 ft | 231 kts | 13° |
| 2026-05-04 04:41 | 36.13189 | -86.55254 | 8009 ft | 231 kts | 13° |
| 2026-05-04 04:41 | 36.14707 | -86.54698 | 8011 ft | 230 kts | 13° |
| 2026-05-04 04:42 | 36.16244 | -86.54139 | 8010 ft | 231 kts | 13° |
| 2026-05-04 04:42 | 36.17784 | -86.53577 | 8013 ft | 231 kts | 13° |
| 2026-05-04 04:42 | 36.19321 | -86.53015 | 8010 ft | 230 kts | 13° |
| 2026-05-04 04:42 | 36.20850 | -86.52452 | 7815 ft | 229 kts | 13° |
| 2026-05-04 04:43 | 36.22372 | -86.51889 | 7467 ft | 228 kts | 13° |
| 2026-05-04 04:43 | 36.23888 | -86.51330 | 7135 ft | 227 kts | 13° |
| 2026-05-04 04:43 | 36.25401 | -86.50772 | 6800 ft | 226 kts | 13° |
| 2026-05-04 04:43 | 36.26907 | -86.50216 | 6465 ft | 226 kts | 13° |
| 2026-05-04 04:44 | 36.28411 | -86.49661 | 6128 ft | 225 kts | 14° |
| 2026-05-04 04:44 | 36.29896 | -86.49112 | 6017 ft | 223 kts | 14° |
| 2026-05-04 04:44 | 36.31389 | -86.48559 | 6017 ft | 224 kts | 14° |
| 2026-05-04 04:44 | 36.32887 | -86.48002 | 6019 ft | 225 kts | 14° |
| 2026-05-04 04:45 | 36.34386 | -86.47445 | 6020 ft | 225 kts | 14° |
| 2026-05-04 04:45 | 36.35885 | -86.46890 | 6019 ft | 225 kts | 14° |
| 2026-05-04 04:45 | 36.37381 | -86.46337 | 6020 ft | 224 kts | 14° |
| 2026-05-04 04:47 | 36.44866 | -86.48263 | 6016 ft | 221 kts | 280° |
| 2026-05-04 04:47 | 36.44667 | -86.50153 | 6017 ft | 228 kts | 246° |
| 2026-05-04 04:47 | 36.43719 | -86.51735 | 5779 ft | 231 kts | 228° |
| 2026-05-04 04:47 | 36.42569 | -86.53129 | 5479 ft | 229 kts | 226° |
| 2026-05-04 04:48 | 36.41413 | -86.54440 | 5348 ft | 221 kts | 219° |
| 2026-05-04 04:49 | 36.35817 | -86.56907 | 5014 ft | 213 kts | 199° |
| 2026-05-04 04:49 | 36.34405 | -86.57476 | 4866 ft | 213 kts | 199° |
| 2026-05-04 04:49 | 36.32997 | -86.58043 | 4601 ft | 212 kts | 199° |
| 2026-05-04 04:49 | 36.31591 | -86.58608 | 4320 ft | 212 kts | 199° |
| 2026-05-04 04:50 | 36.30186 | -86.59174 | 4031 ft | 212 kts | 199° |
| 2026-05-04 04:50 | 36.28803 | -86.59730 | 3747 ft | 212 kts | 198° |
| 2026-05-04 04:50 | 36.27435 | -86.60280 | 3487 ft | 200 kts | 198° |
| 2026-05-04 04:50 | 36.26142 | -86.60799 | 3184 ft | 190 kts | 199° |
| 2026-05-04 04:51 | 36.24914 | -86.61293 | 2927 ft | 181 kts | 198° |
| 2026-05-04 04:51 | 36.23749 | -86.61761 | 2681 ft | 172 kts | 199° |
| 2026-05-04 04:51 | 36.22633 | -86.62209 | 2461 ft | 167 kts | 198° |
| 2026-05-04 04:51 | 36.21536 | -86.62649 | 2237 ft | 165 kts | 198° |
| 2026-05-04 04:52 | 36.20448 | -86.63086 | 2019 ft | 164 kts | 198° |
| 2026-05-04 04:52 | 36.19367 | -86.63520 | 1794 ft | 163 kts | 198° |
| 2026-05-04 04:52 | 36.18287 | -86.63953 | 1571 ft | 163 kts | 198° |
| 2026-05-04 04:52 | 36.17219 | -86.64381 | 1358 ft | 159 kts | 198° |
| 2026-05-04 04:53 | 36.16189 | -86.64794 | 1161 ft | 153 kts | 197° |
| 2026-05-04 04:53 | 36.15190 | -86.65189 | 938 ft | 149 kts | 197° |
| 2026-05-04 04:53 | 36.14214 | -86.65583 | 766 ft | 147 kts | 198° |
| 2026-05-04 04:53 | 36.13254 | -86.65976 | 600 ft | 144 kts | 198° |
| 2026-05-04 04:54 | 36.12388 | -86.66322 | 576 ft | 111 kts | 198° |
| 2026-05-04 04:54 | 36.11857 | -86.66534 | 575 ft | 29 kts | 199° |
| 2026-05-04 04:54 | 36.11843 | -86.66604 | 575 ft | 9 kts | 289° |
| 2026-05-04 04:54 | 36.11894 | -86.66660 | 575 ft | 13 kts | 6° |
| 2026-05-04 04:55 | 36.11992 | -86.66623 | 575 ft | 16 kts | 18° |
| 2026-05-04 04:55 | 36.12097 | -86.66581 | 574 ft | 14 kts | 18° |
| 2026-05-04 04:55 | 36.12176 | -86.66549 | 576 ft | 9 kts | 18° |
| 2026-05-04 04:55 | 36.12220 | -86.66593 | 577 ft | 10 kts | 291° |
| 2026-05-04 04:56 | 36.12247 | -86.66690 | 576 ft | 14 kts | 288° |
| 2026-05-04 04:56 | 36.12280 | -86.66816 | 580 ft | 16 kts | 288° |
| 2026-05-04 04:56 | 36.12325 | -86.66919 | 577 ft | 13 kts | 311° |
| 2026-05-04 04:56 | 36.12385 | -86.66995 | 575 ft | 13 kts | 323° |
| 2026-05-04 04:57 | 36.12479 | -86.66960 | 575 ft | 17 kts | 30° |
| 2026-05-04 04:57 | 36.12578 | -86.66931 | 576 ft | 16 kts | 320° |
| 2026-05-04 04:57 | 36.12647 | -86.67030 | 575 ft | 14 kts | 310° |
| 2026-05-04 04:57 | 36.12712 | -86.67125 | 579 ft | 13 kts | 310° |
| 2026-05-04 04:58 | 36.12762 | -86.67197 | 575 ft | 10 kts | 311° |
| 2026-05-04 04:58 | 36.12792 | -86.67263 | 576 ft | 9 kts | 255° |
| 2026-05-04 04:58 | 36.12751 | -86.67284 | 578 ft | 0 kts | 190° |
| 2026-05-04 04:58 | 36.12744 | -86.67285 | 578 ft | 1 kts | 189° |
| 2026-05-04 04:59 | 36.12743 | -86.67285 | 578 ft | 0 kts | 189° |